Side Lake, MN (55781)

2:21 AM CDT on September 27, 2016 (GMT -0500)
Cook Municipal | | Change Station

Elev 1325 ft 47.82 °N, 92.69 °W | Updated 6 minutes ago

Drizzle
Drizzle
48 °F
Feels Like 48 °F
N
14
Wind Variable Wind from WNW
Gusts 21 mph

Today
High -- | Low -- °F
--% Chance of Precip.
Yesterday
High -- | Low -- °F
Precip. -- in
Pressure 29.68 in
Visibility 10.0 miles
Clouds Scattered Clouds 1000 ft
Mostly Cloudy 1300 ft
Overcast 2800 ft
Dew Point 46 °F
Humidity 93%
Rainfall 0.00 in
Snow Depth Not available.
7:06 AM 6:58 PM
Waning Crescent, 13% visible
METAR KCQM 270715Z AUTO 29012G18KT 10SM DZ SCT010 BKN013 OVC028 09/08 A2968 RMK AO2
Pressure 29.68 in
Visibility 10.0 miles
Clouds Scattered Clouds 1000 ft
Mostly Cloudy 1300 ft
Overcast 2800 ft
Dew Point 46 °F
Humidity 93%
Rainfall 0.00 in
Snow Depth Not available.
7:06 AM 6:58 PM
Waning Crescent, 13% visible
METAR KCQM 270715Z AUTO 29012G18KT 10SM DZ SCT010 BKN013 OVC028 09/08 A2968 RMK AO2

10-Day Weather Forecast

Almanac

Astronomy

Sep. 27, 2016 Rise Set
Actual Time
Civil Twilight
Nautical Twilight
Astronomical Twilight
Moon
Length of Visible Light
Length of Day
Tomorrow will be .
, % of the Moon is Illuminated

Today's Extremes

State Highs State Lows

Community

WunderPhotos

Upload Photos

1,942,040 photos uploaded!

WunderBlog® & News

Nearby

Air Quality

  Air Quality AQ Index Pollutant
Not available.

Snow Depth

Station Depth Elevation

Earthquake Activity

City Distance Mag. Time & Date
Minimum magnitude displayed is 2.5.

Coastal Water Temperatures

Place Temperature

Stations

Nearby Weather Stations

Station Location Temp. Windchill Dew Point Humidity Wind Precip. Elev Updated Type
                   

Watches & Warnings

There are currently no watches in effect.